Time;durP1;ratioP1;P1;durP2;ratioP2;P2;SDS_P1;SDS_P2;PMS_P1;PMS_P2;Temp;Humidity;BMP_temperature;BMP_pressure;BME280_temperature;BME280_humidity;BME280_pressure;Samples;Min_cycle;Max_cycle;Signal;HPM_P1;HPM_P2
2022/03/16 00:00:08;;;;;;;43.97;24.17;;;8.40;99.90;;;;;;4996947;28;20031;-87
2022/03/16 00:02:38;;;;;;;46.63;24.45;;;8.30;99.90;;;;;;4981436;28;20094;-86
2022/03/16 00:05:04;;;;;;;47.83;25.48;;;8.30;99.90;;;;;;4982621;28;20039;-85
2022/03/16 00:07:30;;;;;;;41.70;25.48;;;8.30;99.90;;;;;;4997391;28;20023;-86
2022/03/16 00:09:56;;;;;;;42.50;24.55;;;8.40;99.90;;;;;;5004699;28;20071;-84
2022/03/16 00:12:21;;;;;;;40.55;23.77;;;8.30;99.90;;;;;;4986569;28;20027;-85
2022/03/16 00:14:47;;;;;;;47.13;25.60;;;8.30;99.90;;;;;;4981807;28;20042;-84
2022/03/16 00:17:13;;;;;;;47.25;26.85;;;8.30;99.90;;;;;;4982408;28;20038;-85
2022/03/16 00:19:40;;;;;;;46.03;26.23;;;8.20;99.90;;;;;;4984881;28;20114;-85
2022/03/16 00:22:07;;;;;;;47.50;25.35;;;8.20;99.90;;;;;;4988260;28;20151;-85
2022/03/16 00:24:33;;;;;;;46.40;24.88;;;8.10;99.90;;;;;;5029522;23;20118;-83
2022/03/16 00:26:59;;;;;;;51.10;24.75;;;8.00;99.90;;;;;;5015328;28;20038;-83
2022/03/16 00:29:24;;;;;;;45.50;24.58;;;8.00;99.90;;;;;;5013715;28;20030;-83
2022/03/16 00:31:51;;;;;;;45.45;25.27;;;8.10;99.90;;;;;;5016794;28;20037;-82
2022/03/16 00:34:17;;;;;;;49.55;24.33;;;8.10;99.90;;;;;;5005321;28;20046;-87
2022/03/16 00:36:43;;;;;;;50.80;25.05;;;8.10;99.90;;;;;;5015162;28;20039;-81
2022/03/16 00:39:09;;;;;;;43.05;23.83;;;8.00;99.90;;;;;;4996412;28;20031;-84
2022/03/16 00:41:35;;;;;;;45.92;24.88;;;8.00;99.90;;;;;;5013610;28;20033;-84
2022/03/16 00:44:02;;;;;;;44.60;24.48;;;8.10;99.90;;;;;;5000315;28;20030;-86
2022/03/16 00:46:28;;;;;;;43.97;25.88;;;8.10;99.90;;;;;;5012222;28;20027;-81
2022/03/16 00:48:54;;;;;;;42.03;23.95;;;8.10;99.90;;;;;;5014152;28;20049;-84
2022/03/16 00:51:21;;;;;;;44.13;24.50;;;8.10;99.90;;;;;;5015686;28;20026;-80
2022/03/16 00:53:46;;;;;;;45.83;25.10;;;8.10;99.90;;;;;;4992527;28;20026;-84
2022/03/16 00:56:13;;;;;;;46.40;24.35;;;8.10;99.90;;;;;;5010269;28;20094;-84
2022/03/16 00:58:39;;;;;;;44.85;24.08;;;8.10;99.90;;;;;;5016691;28;20026;-81
2022/03/16 01:01:05;;;;;;;46.22;24.40;;;8.10;99.90;;;;;;5021058;28;20015;-81
2022/03/16 01:03:32;;;;;;;49.72;25.05;;;8.10;99.90;;;;;;5020322;28;20056;-82
2022/03/16 01:05:58;;;;;;;44.13;25.33;;;8.20;99.90;;;;;;5021234;28;20017;-82
2022/03/16 01:08:24;;;;;;;45.80;22.45;;;8.20;99.90;;;;;;5021329;28;20014;-81
2022/03/16 01:10:49;;;;;;;47.53;22.33;;;8.30;99.90;;;;;;5020890;28;20031;-80
2022/03/16 01:13:16;;;;;;;39.15;17.27;;;8.40;99.90;;;;;;5020846;28;20026;-81
2022/03/16 01:15:41;;;;;;;50.08;16.55;;;8.70;99.90;;;;;;5021297;28;20073;-80
2022/03/16 01:18:07;;;;;;;40.00;14.15;;;8.90;99.90;;;;;;5020869;28;20054;-82
2022/03/16 01:20:33;;;;;;;37.65;12.45;;;9.10;99.90;;;;;;5020317;28;20029;-84
2022/03/16 01:22:59;;;;;;;35.35;11.32;;;9.30;99.90;;;;;;5016726;28;20077;-85
2022/03/16 01:25:25;;;;;;;31.05;10.85;;;9.60;99.90;;;;;;5006334;28;20069;-83
2022/03/16 01:27:51;;;;;;;31.90;11.25;;;9.70;99.90;;;;;;5006994;28;20044;-83
2022/03/16 01:30:16;;;;;;;31.65;10.30;;;9.80;99.90;;;;;;4991440;28;20030;-84
2022/03/16 01:32:42;;;;;;;31.30;10.50;;;9.90;99.90;;;;;;5015769;28;20030;-82
2022/03/16 01:35:09;;;;;;;29.90;10.35;;;10.00;99.90;;;;;;5018867;28;20015;-84
2022/03/16 01:37:35;;;;;;;32.45;10.23;;;10.00;99.90;;;;;;5017411;28;20064;-83
2022/03/16 01:40:02;;;;;;;24.92;9.77;;;10.00;99.90;;;;;;5010793;28;20025;-84
2022/03/16 01:42:29;;;;;;;37.35;11.05;;;10.00;99.90;;;;;;5007537;28;20037;-83
2022/03/16 01:44:57;;;;;;;28.35;9.73;;;10.00;99.90;;;;;;5005916;28;20026;-86
2022/03/16 01:47:24;;;;;;;28.63;10.93;;;10.00;99.90;;;;;;5008538;28;20097;-81
2022/03/16 01:49:52;;;;;;;24.35;10.25;;;10.00;99.90;;;;;;5018238;28;20022;-82
2022/03/16 01:52:21;;;;;;;32.25;11.18;;;9.90;99.90;;;;;;5018011;28;20035;-84
2022/03/16 01:54:48;;;;;;;31.13;11.32;;;10.00;99.90;;;;;;5002219;28;20013;-83
2022/03/16 01:57:15;;;;;;;28.85;11.27;;;9.90;99.90;;;;;;5018946;28;20042;-85
2022/03/16 01:59:42;;;;;;;26.23;11.63;;;10.00;99.90;;;;;;5002767;28;20081;-85
2022/03/16 02:02:09;;;;;;;32.55;11.68;;;9.90;99.90;;;;;;4984400;28;20030;-84
2022/03/16 02:04:36;;;;;;;32.55;11.35;;;9.90;99.90;;;;;;4983387;28;20118;-84
2022/03/16 02:07:02;;;;;;;25.75;11.88;;;10.00;99.90;;;;;;5001121;28;20030;-83
2022/03/16 02:09:29;;;;;;;26.15;12.38;;;10.00;99.90;;;;;;5001618;28;20026;-83
2022/03/16 02:11:55;;;;;;;26.67;11.63;;;10.00;99.90;;;;;;5001434;28;20034;-86
2022/03/16 02:14:22;;;;;;;26.35;12.40;;;10.00;99.90;;;;;;5000308;28;20050;-83
2022/03/16 02:16:48;;;;;;;25.02;11.80;;;10.10;99.90;;;;;;5003522;28;20555;-84
2022/03/16 02:19:15;;;;;;;21.80;11.95;;;10.10;99.90;;;;;;5004518;28;20633;-84
2022/03/16 02:21:44;;;;;;;33.78;12.20;;;10.10;99.90;;;;;;4999748;28;20031;-84
2022/03/16 02:24:10;;;;;;;28.83;10.98;;;10.20;99.90;;;;;;5001283;28;20026;-85
2022/03/16 02:26:36;;;;;;;25.50;11.70;;;10.20;99.90;;;;;;5008074;28;20109;-84
2022/03/16 02:29:03;;;;;;;29.98;11.25;;;10.20;99.90;;;;;;4991995;28;20030;-83
2022/03/16 02:31:29;;;;;;;22.80;12.45;;;10.10;99.90;;;;;;5011123;28;20479;-84
2022/03/16 02:33:55;;;;;;;20.08;10.95;;;10.10;99.90;;;;;;5007990;28;20088;-84
2022/03/16 02:36:20;;;;;;;30.30;11.48;;;10.10;99.90;;;;;;5006613;28;20038;-84
2022/03/16 02:38:46;;;;;;;29.83;11.43;;;10.00;99.90;;;;;;5008289;28;20022;-84
2022/03/16 02:41:12;;;;;;;23.80;11.40;;;10.00;99.90;;;;;;5002648;28;20578;-84
2022/03/16 02:43:39;;;;;;;28.88;11.88;;;9.90;99.90;;;;;;5016890;28;20018;-84
2022/03/16 02:46:05;;;;;;;18.05;11.23;;;9.90;99.90;;;;;;5009759;28;20438;-84
2022/03/16 02:48:31;;;;;;;25.27;12.07;;;9.80;99.90;;;;;;5004964;28;20042;-83
2022/03/16 02:50:57;;;;;;;23.02;11.68;;;9.80;99.90;;;;;;4992084;28;20470;-84
2022/03/16 02:53:23;;;;;;;24.65;12.93;;;9.70;99.90;;;;;;5008006;28;20026;-84
2022/03/16 02:55:49;;;;;;;25.75;12.38;;;9.70;99.90;;;;;;5004661;28;20406;-82
2022/03/16 02:58:16;;;;;;;21.67;11.68;;;9.70;99.90;;;;;;5001083;28;20058;-84
2022/03/16 03:00:43;;;;;;;22.50;11.30;;;9.70;99.90;;;;;;5007310;28;20390;-82
2022/03/16 03:03:09;;;;;;;27.55;12.10;;;9.70;99.90;;;;;;5013001;28;20034;-83
2022/03/16 03:05:35;;;;;;;22.83;12.40;;;9.80;99.90;;;;;;5015827;28;20010;-83
2022/03/16 03:08:00;;;;;;;21.15;13.13;;;9.80;99.90;;;;;;5014448;28;20414;-85
2022/03/16 03:10:27;;;;;;;19.42;11.85;;;9.90;99.90;;;;;;5014221;28;20041;-83
2022/03/16 03:12:53;;;;;;;23.40;11.82;;;9.90;99.90;;;;;;5015769;28;20040;-84
2022/03/16 03:15:19;;;;;;;25.85;13.10;;;10.00;99.90;;;;;;5013129;28;20034;-84
2022/03/16 03:17:45;;;;;;;26.33;12.73;;;10.00;99.90;;;;;;5009627;28;20085;-83
2022/03/16 03:20:12;;;;;;;20.88;12.25;;;10.00;99.90;;;;;;5007307;28;20046;-85
2022/03/16 03:22:38;;;;;;;26.98;13.60;;;10.00;99.90;;;;;;5005066;28;20109;-84
2022/03/16 03:25:05;;;;;;;25.33;13.10;;;10.00;99.90;;;;;;5003019;28;20026;-84
2022/03/16 03:27:32;;;;;;;24.75;13.30;;;10.00;99.90;;;;;;5003239;28;20034;-84
2022/03/16 03:29:58;;;;;;;22.80;13.75;;;10.00;99.90;;;;;;5005632;28;20082;-84
2022/03/16 03:32:23;;;;;;;20.15;12.35;;;10.00;99.90;;;;;;5011079;28;20030;-84
2022/03/16 03:34:51;;;;;;;19.25;11.02;;;9.90;99.90;;;;;;5012892;28;20045;-84
2022/03/16 03:37:19;;;;;;;18.98;10.98;;;9.90;99.90;;;;;;5013487;28;20074;-84
2022/03/16 03:39:45;;;;;;;17.60;8.85;;;9.90;99.90;;;;;;5007093;28;20114;-84
2022/03/16 03:42:11;;;;;;;17.70;9.52;;;9.90;99.90;;;;;;5008278;28;20033;-81
2022/03/16 03:44:38;;;;;;;17.40;10.25;;;9.90;99.90;;;;;;4997303;28;20045;-83
2022/03/16 03:47:09;;;;;;;15.85;10.05;;;9.90;99.90;;;;;;4994298;28;20053;-84
2022/03/16 03:49:37;;;;;;;17.00;9.95;;;9.90;99.90;;;;;;5012694;28;20025;-84
2022/03/16 03:52:04;;;;;;;15.65;10.07;;;9.90;99.90;;;;;;5013465;28;20030;-83
2022/03/16 03:54:30;;;;;;;16.42;9.73;;;9.90;99.90;;;;;;4968003;28;20041;-84
2022/03/16 03:56:56;;;;;;;13.07;9.18;;;9.90;99.90;;;;;;4982931;28;20426;-85
2022/03/16 03:59:23;;;;;;;15.68;8.80;;;9.90;99.90;;;;;;4999834;28;20591;-84
2022/03/16 04:01:49;;;;;;;13.55;8.73;;;9.80;99.90;;;;;;5001369;28;20049;-85
2022/03/16 04:04:15;;;;;;;13.50;7.97;;;9.90;99.90;;;;;;4998627;28;20030;-85
2022/03/16 04:06:41;;;;;;;12.60;7.88;;;9.90;99.90;;;;;;5000201;28;20058;-84
2022/03/16 04:09:07;;;;;;;11.52;8.15;;;9.90;99.90;;;;;;4998527;28;20027;-85
2022/03/16 04:11:33;;;;;;;12.85;7.97;;;9.90;99.90;;;;;;4996450;28;20037;-84
2022/03/16 04:13:59;;;;;;;15.20;8.52;;;9.90;99.90;;;;;;4999118;28;20390;-83
2022/03/16 04:16:25;;;;;;;13.45;8.18;;;10.00;99.90;;;;;;4998858;28;20022;-85
2022/03/16 04:18:51;;;;;;;19.30;8.13;;;10.00;99.90;;;;;;5004185;28;20032;-84
2022/03/16 04:21:17;;;;;;;10.75;7.60;;;9.90;99.90;;;;;;5004136;28;20026;-85
2022/03/16 04:23:43;;;;;;;12.25;7.50;;;9.90;99.90;;;;;;5004027;28;20054;-84
2022/03/16 04:26:09;;;;;;;16.48;7.90;;;9.90;99.90;;;;;;5002487;28;20038;-85
2022/03/16 04:28:35;;;;;;;12.40;7.35;;;9.90;99.90;;;;;;5007317;28;20023;-83
2022/03/16 04:31:01;;;;;;;12.60;7.43;;;9.90;99.90;;;;;;4991997;28;20057;-84
2022/03/16 04:33:28;;;;;;;12.18;7.95;;;9.90;99.90;;;;;;5013566;28;20035;-83
2022/03/16 04:35:55;;;;;;;11.57;8.18;;;9.90;99.90;;;;;;5015986;28;20087;-85
2022/03/16 04:38:21;;;;;;;17.52;10.07;;;9.80;99.90;;;;;;5016344;28;20049;-84
2022/03/16 04:40:47;;;;;;;18.70;9.15;;;9.80;99.90;;;;;;4998440;28;20664;-83
2022/03/16 04:43:13;;;;;;;18.70;9.25;;;9.70;99.90;;;;;;5007102;28;20038;-84
2022/03/16 04:45:39;;;;;;;20.77;10.05;;;9.70;99.90;;;;;;5008169;28;20057;-84
2022/03/16 04:48:08;;;;;;;19.20;10.60;;;9.70;99.90;;;;;;5005896;28;20042;-84
2022/03/16 04:50:38;;;;;;;17.60;10.50;;;9.60;99.90;;;;;;5007456;28;20034;-84
2022/03/16 04:53:03;;;;;;;16.50;9.13;;;9.60;99.90;;;;;;5005954;28;20050;-85
2022/03/16 04:55:29;;;;;;;20.75;10.07;;;9.60;99.90;;;;;;5007323;28;20058;-82
2022/03/16 04:57:55;;;;;;;18.48;10.27;;;9.60;99.90;;;;;;5008192;28;20044;-85
2022/03/16 05:00:21;;;;;;;18.63;10.57;;;9.60;99.90;;;;;;5012615;28;20026;-83
2022/03/16 05:02:47;;;;;;;21.27;11.48;;;9.60;99.90;;;;;;5015464;28;20123;-84
2022/03/16 05:05:13;;;;;;;17.55;10.93;;;9.60;99.90;;;;;;5018176;28;20018;-83
2022/03/16 05:07:40;;;;;;;20.95;11.95;;;9.60;99.90;;;;;;5018978;28;20037;-81
2022/03/16 05:10:07;;;;;;;25.38;12.95;;;9.60;99.90;;;;;;5017564;28;20537;-83
2022/03/16 05:12:37;;;;;;;20.85;12.23;;;9.60;99.90;;;;;;5016396;28;20091;-83
2022/03/16 05:15:07;;;;;;;21.73;12.75;;;9.60;99.90;;;;;;5017900;28;20170;-84
2022/03/16 05:17:35;;;;;;;20.23;13.18;;;9.60;99.90;;;;;;5015499;28;20062;-84
2022/03/16 05:20:01;;;;;;;22.48;12.82;;;9.50;99.90;;;;;;5014648;28;20029;-84
2022/03/16 05:22:27;;;;;;;22.55;12.95;;;9.50;99.90;;;;;;5014029;28;20038;-82
2022/03/16 05:24:53;;;;;;;21.27;12.88;;;9.50;99.90;;;;;;5015784;28;20069;-84
2022/03/16 05:27:20;;;;;;;22.52;12.75;;;9.50;99.90;;;;;;5008878;28;20053;-82
2022/03/16 05:29:47;;;;;;;20.02;12.93;;;9.50;99.90;;;;;;5001224;28;20332;-85
2022/03/16 05:32:14;;;;;;;23.88;14.23;;;9.50;99.90;;;;;;4999848;28;20084;-84
2022/03/16 05:34:39;;;;;;;23.88;13.32;;;9.40;99.90;;;;;;5000254;28;20030;-84
2022/03/16 05:37:06;;;;;;;22.50;14.00;;;9.40;99.90;;;;;;5000487;28;20030;-84
2022/03/16 05:39:32;;;;;;;30.33;14.55;;;9.30;99.90;;;;;;5015499;28;20021;-84
2022/03/16 05:42:00;;;;;;;22.70;14.50;;;9.30;99.90;;;;;;5017645;28;20478;-84
2022/03/16 05:44:26;;;;;;;24.95;15.30;;;9.30;99.90;;;;;;5006621;28;20070;-83
2022/03/16 05:46:54;;;;;;;28.50;14.55;;;9.20;99.90;;;;;;5018208;28;20018;-85
2022/03/16 05:49:22;;;;;;;27.00;15.05;;;9.20;99.90;;;;;;5007785;28;20435;-84
2022/03/16 05:51:48;;;;;;;26.83;16.17;;;9.30;99.90;;;;;;5008079;28;20046;-83
2022/03/16 05:54:14;;;;;;;32.63;17.75;;;9.20;99.90;;;;;;5005149;28;20109;-84
2022/03/16 05:56:40;;;;;;;29.63;16.42;;;9.30;99.90;;;;;;5003804;28;20085;-84
2022/03/16 05:59:06;;;;;;;29.98;18.27;;;9.30;99.90;;;;;;5002720;28;20023;-84
2022/03/16 06:01:32;;;;;;;30.40;17.27;;;9.30;99.90;;;;;;5000785;28;20066;-85
2022/03/16 06:03:58;;;;;;;31.25;18.65;;;9.20;99.90;;;;;;5012441;28;20026;-83
2022/03/16 06:06:26;;;;;;;28.95;17.92;;;9.20;99.90;;;;;;5018078;28;20026;-84
2022/03/16 06:08:52;;;;;;;33.63;18.30;;;9.20;99.90;;;;;;5017428;28;20074;-84
2022/03/16 06:11:20;;;;;;;32.75;18.77;;;9.20;99.90;;;;;;5015753;28;20085;-86
2022/03/16 06:13:46;;;;;;;35.67;18.92;;;9.20;99.90;;;;;;5011745;28;20041;-84
2022/03/16 06:16:12;;;;;;;34.30;19.52;;;9.20;99.90;;;;;;5004659;28;20046;-85
2022/03/16 06:18:37;;;;;;;34.85;19.98;;;9.20;99.90;;;;;;5007365;28;20123;-86
2022/03/16 06:21:03;;;;;;;32.53;19.67;;;9.20;99.90;;;;;;4989667;28;20136;-85
2022/03/16 06:23:29;;;;;;;36.85;20.33;;;9.20;99.90;;;;;;5029097;23;20058;-86
2022/03/16 06:25:55;;;;;;;36.33;20.20;;;9.20;99.90;;;;;;5002727;28;20094;-86
2022/03/16 06:28:21;;;;;;;39.80;19.92;;;9.20;99.90;;;;;;5003104;28;20022;-85
2022/03/16 06:30:46;;;;;;;36.33;20.40;;;9.20;99.90;;;;;;5006010;28;20030;-85
2022/03/16 06:33:12;;;;;;;36.03;20.13;;;9.10;99.90;;;;;;5013808;28;20037;-87
2022/03/16 06:35:38;;;;;;;39.70;21.08;;;9.10;99.90;;;;;;4997431;28;20062;-84
2022/03/16 06:38:04;;;;;;;37.33;20.30;;;9.10;99.90;;;;;;4998472;28;20027;-86
2022/03/16 06:40:30;;;;;;;38.75;19.88;;;9.10;99.90;;;;;;4993989;28;20403;-85
2022/03/16 06:42:58;;;;;;;39.85;21.30;;;9.10;99.90;;;;;;4991368;28;20041;-84
2022/03/16 06:45:26;;;;;;;38.45;19.48;;;9.10;99.90;;;;;;4997037;28;20018;-84
2022/03/16 06:47:57;;;;;;;39.42;20.15;;;9.10;99.90;;;;;;4978620;28;20026;-84
2022/03/16 06:50:23;;;;;;;34.38;20.05;;;9.10;99.90;;;;;;4982779;28;20085;-83
2022/03/16 06:52:49;;;;;;;36.95;19.58;;;9.00;99.90;;;;;;5002191;28;20023;-84
2022/03/16 06:55:15;;;;;;;43.33;20.20;;;9.00;99.90;;;;;;4977104;28;20050;-85
2022/03/16 06:57:41;;;;;;;36.88;18.73;;;8.90;99.90;;;;;;4975809;28;20034;-85
2022/03/16 07:00:09;;;;;;;36.75;19.13;;;8.90;99.90;;;;;;4976597;28;20016;-86
2022/03/16 07:03:03;;;;;;;38.50;19.73;;;8.90;99.90;;;;;;4999170;28;20082;-87
2022/03/16 07:05:31;;;;;;;37.33;18.55;;;8.80;99.90;;;;;;4982572;28;20046;-86
2022/03/16 07:07:58;;;;;;;37.25;19.38;;;8.80;99.90;;;;;;4988595;28;20041;-87
2022/03/16 07:10:25;;;;;;;33.17;18.73;;;8.80;99.90;;;;;;4991224;28;20013;-88
2022/03/16 07:12:51;;;;;;;37.08;18.88;;;8.80;99.90;;;;;;4997424;28;20034;-87
2022/03/16 07:15:19;;;;;;;36.53;20.05;;;8.80;99.90;;;;;;4996862;28;20034;-88
2022/03/16 07:17:45;;;;;;;45.55;19.73;;;8.80;99.90;;;;;;4998399;28;20027;-87
2022/03/16 07:20:11;;;;;;;35.30;18.98;;;8.80;99.90;;;;;;5014040;28;20083;-86
2022/03/16 07:22:38;;;;;;;34.35;18.10;;;8.80;99.90;;;;;;4998011;28;20022;-86
2022/03/16 07:25:05;;;;;;;39.92;20.23;;;8.80;99.90;;;;;;4996934;28;20102;-87
2022/03/16 07:27:31;;;;;;;29.80;16.83;;;8.90;99.90;;;;;;4992942;28;20403;-88
2022/03/16 07:29:57;;;;;;;32.63;18.27;;;8.90;99.90;;;;;;4981566;28;20082;-88
2022/03/16 07:32:23;;;;;;;38.92;19.35;;;8.80;99.90;;;;;;4997314;28;20026;-88
2022/03/16 07:34:49;;;;;;;35.15;19.13;;;8.80;99.90;;;;;;4996140;28;20027;-88
2022/03/16 07:37:15;;;;;;;38.45;20.08;;;8.80;99.90;;;;;;4986857;28;20039;-88
2022/03/16 07:39:41;;;;;;;33.65;18.92;;;8.80;99.90;;;;;;4971665;29;20066;-89
2022/03/16 07:42:09;;;;;;;37.65;19.05;;;8.90;99.90;;;;;;5006341;28;20018;-89
2022/03/16 07:44:34;;;;;;;34.75;19.10;;;8.90;99.90;;;;;;4993862;28;20413;-88
2022/03/16 07:47:02;;;;;;;37.25;18.58;;;8.90;99.90;;;;;;4990647;28;20050;-87
2022/03/16 07:49:29;;;;;;;33.65;20.10;;;8.90;99.90;;;;;;4993470;28;20416;-88
2022/03/16 07:51:55;;;;;;;32.30;17.50;;;9.00;99.90;;;;;;4994218;28;20010;-86
2022/03/16 07:54:23;;;;;;;42.63;18.88;;;8.90;99.90;;;;;;4988103;28;20035;-84
2022/03/16 07:56:49;;;;;;;36.22;19.65;;;8.90;99.90;;;;;;4982659;28;20038;-88
2022/03/16 07:59:15;;;;;;;33.17;18.33;;;8.90;99.90;;;;;;4985948;28;20033;-85
2022/03/16 08:01:43;;;;;;;32.80;18.52;;;8.90;99.90;;;;;;4990114;28;20019;-87
2022/03/16 08:04:09;;;;;;;38.67;20.10;;;8.90;99.90;;;;;;4994960;28;20045;-87
2022/03/16 08:06:35;;;;;;;33.63;18.67;;;9.00;99.90;;;;;;4980816;28;20031;-86
2022/03/16 08:09:01;;;;;;;33.83;18.70;;;8.90;99.90;;;;;;4991756;28;20079;-86
2022/03/16 08:11:27;;;;;;;38.63;19.67;;;8.90;99.90;;;;;;5000319;28;20023;-88
2022/03/16 08:13:53;;;;;;;36.92;21.02;;;8.90;99.90;;;;;;4984992;28;20024;-86
2022/03/16 08:16:18;;;;;;;39.40;20.60;;;8.90;99.90;;;;;;5001491;28;20046;-86
2022/03/16 08:18:44;;;;;;;34.90;20.23;;;9.00;99.90;;;;;;4983815;28;20020;-86
2022/03/16 08:21:11;;;;;;;37.55;20.30;;;9.00;99.90;;;;;;4996849;28;20024;-88
2022/03/16 08:23:38;;;;;;;37.33;20.90;;;9.00;99.90;;;;;;4995590;28;20115;-87
2022/03/16 08:26:04;;;;;;;41.70;21.23;;;9.00;99.90;;;;;;4997561;28;20047;-86
2022/03/16 08:28:30;;;;;;;44.45;22.00;;;9.00;99.90;;;;;;4997384;28;20095;-87
2022/03/16 08:30:56;;;;;;;41.42;21.38;;;9.00;99.90;;;;;;4996457;28;20082;-86
2022/03/16 08:33:23;;;;;;;38.40;21.83;;;9.00;99.90;;;;;;4991142;28;20542;-90
2022/03/16 08:35:50;;;;;;;40.75;22.05;;;9.00;99.90;;;;;;4998983;28;20366;-87
2022/03/16 08:38:16;;;;;;;40.45;21.83;;;9.10;99.90;;;;;;4983462;28;20066;-87
2022/03/16 08:40:46;;;;;;;41.65;23.80;;;9.10;99.90;;;;;;4969461;28;20023;-88
2022/03/16 08:43:12;;;;;;;41.15;22.15;;;9.10;99.90;;;;;;4987997;28;20027;-85
2022/03/16 08:45:39;;;;;;;37.60;21.35;;;9.20;99.90;;;;;;4991641;28;20494;-87
2022/03/16 08:48:05;;;;;;;42.42;22.67;;;9.20;99.90;;;;;;4972884;28;20034;-87
2022/03/16 08:50:31;;;;;;;43.67;23.27;;;9.20;99.90;;;;;;4963577;28;20022;-87
2022/03/16 08:52:57;;;;;;;42.25;23.92;;;9.30;99.90;;;;;;4986862;28;20054;-88
2022/03/16 08:55:23;;;;;;;43.78;23.77;;;9.30;99.90;;;;;;4989047;28;20023;-88
2022/03/16 08:57:49;;;;;;;42.08;23.40;;;9.30;99.90;;;;;;4986831;28;20090;-89
2022/03/16 09:00:18;;;;;;;46.30;22.95;;;9.30;99.90;;;;;;4987778;28;20043;-88
2022/03/16 09:02:44;;;;;;;41.60;22.70;;;9.40;99.90;;;;;;4980277;28;20491;-89
2022/03/16 09:05:12;;;;;;;46.15;23.00;;;9.40;99.90;;;;;;4982824;28;20023;-87
2022/03/16 09:07:40;;;;;;;45.92;25.48;;;9.40;99.90;;;;;;4986024;28;20031;-88
2022/03/16 09:10:08;;;;;;;44.65;24.42;;;9.40;99.90;;;;;;4989628;28;20045;-87
2022/03/16 09:12:35;;;;;;;41.63;24.10;;;9.50;99.90;;;;;;4985105;28;20035;-87
2022/03/16 09:15:01;;;;;;;46.95;25.48;;;9.40;99.90;;;;;;4985005;28;20026;-88
2022/03/16 09:17:30;;;;;;;45.50;24.63;;;9.50;99.90;;;;;;4982408;28;20039;-89
2022/03/16 09:19:57;;;;;;;41.85;23.65;;;9.50;99.90;;;;;;4973117;28;20134;-88
2022/03/16 09:22:23;;;;;;;48.35;25.23;;;9.60;99.90;;;;;;4991560;28;20054;-86
2022/03/16 09:24:49;;;;;;;52.30;26.27;;;9.50;99.90;;;;;;5013541;28;21174;-87
2022/03/16 09:27:19;;;;;;;42.42;23.98;;;9.50;99.90;;;;;;4990123;28;20031;-87
2022/03/16 09:29:46;;;;;;;47.78;25.75;;;9.60;99.90;;;;;;5007716;28;20041;-88
2022/03/16 09:32:13;;;;;;;49.15;26.92;;;9.50;99.90;;;;;;5007488;28;20035;-87
2022/03/16 09:34:40;;;;;;;49.78;26.05;;;9.50;99.90;;;;;;4987103;28;20382;-88
2022/03/16 09:37:08;;;;;;;48.92;25.98;;;9.40;99.90;;;;;;5000055;28;20066;-88
2022/03/16 09:39:35;;;;;;;50.45;25.33;;;9.30;99.90;;;;;;4985354;28;20388;-90
2022/03/16 09:42:03;;;;;;;49.15;27.58;;;9.30;99.90;;;;;;4987296;28;20022;-88
2022/03/16 09:44:30;;;;;;;48.85;27.00;;;9.20;99.90;;;;;;4991236;28;20023;-89
2022/03/16 09:46:57;;;;;;;47.97;26.33;;;9.30;99.90;;;;;;4998618;28;20023;-90
2022/03/16 09:49:24;;;;;;;46.92;28.60;;;9.20;99.90;;;;;;4973915;29;20071;-88
2022/03/16 09:51:50;;;;;;;56.17;28.33;;;9.20;99.90;;;;;;4990236;28;20030;-88
2022/03/16 09:54:16;;;;;;;52.20;27.92;;;9.20;99.90;;;;;;4991526;28;20034;-88
2022/03/16 09:56:43;;;;;;;50.53;27.58;;;9.20;99.90;;;;;;4992694;28;20030;-89
2022/03/16 09:59:10;;;;;;;47.42;27.70;;;9.20;99.90;;;;;;4992873;28;20022;-89
2022/03/16 10:01:36;;;;;;;51.80;28.98;;;9.20;99.90;;;;;;4977695;28;20027;-88
2022/03/16 10:04:05;;;;;;;51.00;28.95;;;9.20;99.90;;;;;;4986720;28;20097;-87
2022/03/16 10:06:35;;;;;;;50.65;28.33;;;9.30;99.90;;;;;;4969740;28;20037;-89
2022/03/16 10:15:04;;;;;;;55.55;28.77;;;9.30;99.90;;;;;;4993100;28;20010;-89
2022/03/16 10:17:45;;;;;;;45.38;26.80;;;9.30;99.90;;;;;;4992053;28;20098;-88
2022/03/16 10:20:18;;;;;;;54.90;29.30;;;9.30;99.90;;;;;;4993701;28;20090;-88
2022/03/16 10:22:56;;;;;;;60.15;28.38;;;9.30;99.90;;;;;;5013493;28;20042;-88
2022/03/16 10:25:23;;;;;;;49.95;27.75;;;9.30;99.90;;;;;;4994139;28;20046;-89
2022/03/16 10:27:49;;;;;;;43.95;26.60;;;9.30;99.90;;;;;;4986947;28;20182;-87
2022/03/16 10:30:15;;;;;;;45.13;25.52;;;9.20;99.90;;;;;;5002759;28;20027;-88
2022/03/16 10:32:54;;;;;;;31.92;17.80;;;9.20;99.90;;;;;;4985982;28;20138;-87
2022/03/16 10:35:23;;;;;;;27.27;15.48;;;9.20;99.90;;;;;;4982315;28;20035;-86
2022/03/16 10:37:50;;;;;;;23.08;13.57;;;9.10;99.90;;;;;;5006775;28;20042;-90
2022/03/16 10:40:23;;;;;;;25.08;14.95;;;9.10;99.90;;;;;;4988223;28;20111;-88
2022/03/16 10:48:22;;;;;;;22.10;11.80;;;9.00;99.90;;;;;;4993799;28;20090;-87
2022/03/16 10:50:55;;;;;;;19.63;12.57;;;9.00;99.90;;;;;;4996449;28;20046;-89
2022/03/16 10:53:28;;;;;;;22.00;12.80;;;9.00;99.90;;;;;;4985119;28;20035;-87
2022/03/16 10:55:56;;;;;;;19.98;12.70;;;9.00;99.90;;;;;;4964500;28;20023;-88
2022/03/16 10:58:24;;;;;;;32.28;18.27;;;9.00;99.90;;;;;;4984242;28;20111;-87
2022/03/16 11:00:52;;;;;;;23.13;13.23;;;9.10;99.90;;;;;;4988878;28;20007;-88
2022/03/16 11:03:22;;;;;;;24.40;13.63;;;9.20;99.90;;;;;;4989949;28;20109;-88
2022/03/16 11:05:49;;;;;;;23.05;13.38;;;9.20;99.90;;;;;;4983243;28;20019;-87
2022/03/16 11:08:15;;;;;;;22.20;13.50;;;9.40;99.90;;;;;;4988517;28;20023;-84
2022/03/16 11:10:43;;;;;;;24.00;13.63;;;9.40;99.90;;;;;;4987266;28;20058;-86
2022/03/16 11:13:29;;;;;;;23.58;15.07;;;9.40;99.90;;;;;;4983200;28;20168;-86
2022/03/16 11:15:57;;;;;;;24.58;14.50;;;9.50;99.90;;;;;;4985548;28;20091;-87
2022/03/16 11:18:24;;;;;;;24.10;13.77;;;9.50;99.90;;;;;;4970793;28;20071;-88
2022/03/16 11:20:56;;;;;;;32.83;13.98;;;9.60;99.90;;;;;;4980676;28;20109;-88
2022/03/16 11:26:29;;;;;;;19.98;12.20;;;10.00;99.90;;;;;;4987400;28;20062;-86
2022/03/16 11:29:14;;;;;;;21.55;12.45;;;10.00;99.90;;;;;;4988325;28;20038;-85
2022/03/16 11:31:42;;;;;;;24.88;12.82;;;9.90;99.90;;;;;;4985430;28;20035;-86
2022/03/16 11:34:10;;;;;;;21.70;12.63;;;9.90;99.90;;;;;;4999172;28;20042;-87
2022/03/16 11:36:41;;;;;;;19.45;12.40;;;10.00;99.90;;;;;;4980816;28;20062;-85
2022/03/16 11:39:21;;;;;;;18.85;12.15;;;10.10;99.90;;;;;;4981457;28;20035;-87
2022/03/16 11:41:53;;;;;;;22.45;13.60;;;10.20;99.90;;;;;;4979610;28;20627;-88
2022/03/16 11:44:25;;;;;;;24.75;13.23;;;10.40;99.90;;;;;;4982735;28;20026;-87
2022/03/16 11:47:10;;;;;;;22.60;13.57;;;10.50;99.90;;;;;;4987697;28;20022;-86
2022/03/16 11:49:38;;;;;;;21.27;12.80;;;10.60;99.90;;;;;;4986305;28;20035;-87
2022/03/16 11:52:06;;;;;;;19.05;12.45;;;10.70;99.90;;;;;;4998543;28;20026;-86
2022/03/16 11:54:46;;;;;;;20.20;12.73;;;10.60;99.90;;;;;;4991939;28;20015;-88
2022/03/16 11:57:13;;;;;;;21.85;13.25;;;10.60;99.90;;;;;;4996884;28;20042;-88
2022/03/16 11:59:45;;;;;;;20.92;12.88;;;10.60;99.90;;;;;;5011707;28;20015;-87
2022/03/16 12:02:13;;;;;;;20.42;13.13;;;10.60;99.90;;;;;;4989422;28;20038;-85
2022/03/16 12:04:44;;;;;;;20.15;12.15;;;10.60;99.90;;;;;;4997334;28;20090;-85
2022/03/16 12:07:12;;;;;;;22.52;14.32;;;10.60;99.90;;;;;;5010586;28;20034;-87
2022/03/16 12:09:54;;;;;;;25.40;14.85;;;10.70;99.90;;;;;;4987947;28;20019;-88
2022/03/16 12:15:29;;;;;;;26.23;15.77;;;10.60;99.90;;;;;;5001792;28;20065;-88
2022/03/16 12:17:55;;;;;;;24.55;15.60;;;10.70;99.90;;;;;;4986331;28;20027;-87
2022/03/16 12:20:21;;;;;;;26.85;15.73;;;10.80;99.90;;;;;;4983698;28;20034;-87
2022/03/16 12:22:52;;;;;;;27.98;16.80;;;10.80;99.90;;;;;;4981793;28;20031;-85
2022/03/16 12:25:27;;;;;;;28.60;16.58;;;10.70;99.90;;;;;;5001374;28;20019;-87
2022/03/16 12:30:43;;;;;;;31.33;16.70;;;10.70;99.90;;;;;;4963470;28;19980;-86
2022/03/16 12:33:19;;;;;;;35.90;17.95;;;10.70;99.90;;;;;;4996339;28;20015;-87
2022/03/16 12:35:47;;;;;;;29.33;17.35;;;10.70;99.90;;;;;;4994589;28;20054;-86
2022/03/16 12:38:15;;;;;;;28.75;17.40;;;10.80;99.90;;;;;;5018764;23;20035;-84
2022/03/16 12:42:31;;;;;;;32.95;17.38;;;10.90;99.90;;;;;;4980507;28;20362;-87
2022/03/16 12:43:31;;;;;;;28.58;16.77;;;11.10;99.90;;;;;;4979991;28;20070;-85
2022/03/16 12:46:05;;;;;;;28.83;16.83;;;11.30;99.90;;;;;;4994308;28;20023;-86
2022/03/16 12:48:35;;;;;;;33.40;17.83;;;11.30;99.90;;;;;;4980055;28;20031;-86
2022/03/16 12:51:02;;;;;;;30.17;17.40;;;11.40;99.90;;;;;;4984476;28;20023;-85
2022/03/16 12:53:45;;;;;;;33.53;17.70;;;11.80;99.90;;;;;;4981606;28;20058;-85
2022/03/16 12:56:15;;;;;;;30.83;17.90;;;11.80;99.90;;;;;;4984319;28;20094;-88